createdAt,value
2022-10-16T00:07:43.997Z,1.40
2022-10-16T00:15:46.620Z,2.67
2022-10-16T00:20:21.685Z,4.20
2022-10-16T00:23:23.541Z,1.93
2022-10-16T00:26:25.008Z,2.40
2022-10-16T00:29:26.537Z,2.60
2022-10-16T00:32:28.195Z,3.00
2022-10-16T00:35:30.061Z,1.77
2022-10-16T00:38:32.082Z,3.73
2022-10-16T00:41:34.835Z,2.50
2022-10-16T00:44:50.841Z,4.40
2022-10-16T00:47:54.915Z,5.03
2022-10-16T00:50:58.808Z,2.80
2022-10-16T00:54:03.071Z,2.80
2022-10-16T00:57:07.077Z,1.40
2022-10-16T01:00:10.951Z,1.67
2022-10-16T01:03:33.488Z,1.60
2022-10-16T01:06:52.229Z,6.13
2022-10-16T01:10:23.295Z,2.43
2022-10-16T01:13:39.576Z,2.40
2022-10-16T01:16:48.467Z,2.20
2022-10-16T01:20:05.109Z,1.57
2022-10-16T01:23:24.826Z,1.33
2022-10-16T01:26:45.853Z,3.33
2022-10-16T01:29:55.031Z,3.10
2022-10-16T01:32:59.463Z,3.97
2022-10-16T01:36:07.749Z,1.63
2022-10-16T01:39:12.646Z,5.23
2022-10-16T01:42:19.918Z,3.60
2022-10-16T01:45:22.474Z,3.63
2022-10-16T01:48:24.810Z,3.00
2022-10-16T01:51:28.387Z,5.10
2022-10-16T01:54:33.141Z,4.07
2022-10-16T01:57:39.302Z,4.13
2022-10-16T02:00:43.946Z,3.13
2022-10-16T02:03:47.087Z,2.67
2022-10-16T02:06:48.668Z,1.60
2022-10-16T02:09:50.462Z,2.20
2022-10-16T02:13:00.106Z,5.43
2022-10-16T02:16:01.750Z,1.50
2022-10-16T02:19:04.337Z,3.57
2022-10-16T02:22:08.993Z,3.00
2022-10-16T02:25:25.700Z,2.30
2022-10-16T02:28:42.403Z,3.50
2022-10-16T02:31:48.903Z,2.50
2022-10-16T02:34:52.354Z,3.33
2022-10-16T02:37:55.182Z,2.47
2022-10-16T02:40:57.134Z,3.20
2022-10-16T02:43:58.753Z,6.13
2022-10-16T02:47:00.334Z,5.20
2022-10-16T02:50:01.866Z,3.17
2022-10-16T02:53:03.552Z,7.07
2022-10-16T02:56:05.258Z,3.17
2022-10-16T02:59:06.706Z,1.70
2022-10-16T03:02:08.307Z,1.50
2022-10-16T03:05:10.672Z,3.50
2022-10-16T03:08:13.211Z,5.13
2022-10-16T03:11:14.708Z,2.90
2022-10-16T03:14:16.197Z,2.47
2022-10-16T03:17:18.413Z,3.77
2022-10-16T03:20:19.804Z,3.00
2022-10-16T03:23:21.326Z,1.90
2022-10-16T03:26:22.952Z,3.93
2022-10-16T03:29:24.655Z,2.80
2022-10-16T03:32:26.360Z,1.63
2022-10-16T03:35:27.819Z,4.80
2022-10-16T03:38:29.517Z,2.50
2022-10-16T03:41:30.978Z,2.13
2022-10-16T03:44:32.407Z,2.90
2022-10-16T03:47:34.392Z,6.00
2022-10-16T03:50:35.884Z,3.70
2022-10-16T03:53:37.522Z,1.53
2022-10-16T03:56:39.307Z,1.30
2022-10-16T03:59:40.697Z,2.57
2022-10-16T04:02:42.361Z,1.67
2022-10-16T04:05:43.838Z,1.57
2022-10-16T04:08:45.495Z,3.63
2022-10-16T04:11:47.055Z,2.53
2022-10-16T04:14:48.538Z,3.93
2022-10-16T04:17:50.012Z,2.67
2022-10-16T04:20:51.625Z,2.80
2022-10-16T04:23:53.171Z,3.33
2022-10-16T04:26:54.582Z,2.20
2022-10-16T04:29:56.102Z,3.10
2022-10-16T04:32:57.563Z,5.97
2022-10-16T04:36:00.328Z,2.07
2022-10-16T04:39:01.911Z,3.07
2022-10-16T04:42:03.597Z,5.13
2022-10-16T04:45:06.662Z,7.30
2022-10-16T04:48:08.059Z,2.07
2022-10-16T04:51:09.666Z,2.40
2022-10-16T04:54:11.149Z,5.00
2022-10-16T04:57:12.596Z,2.77
2022-10-16T05:00:14.348Z,1.80
2022-10-16T05:03:16.085Z,1.40
2022-10-16T05:06:17.691Z,6.47
2022-10-16T05:09:19.460Z,3.37
2022-10-16T05:12:21.373Z,2.17
2022-10-16T05:15:25.730Z,3.40
2022-10-16T05:18:27.170Z,1.93
2022-10-16T05:21:28.581Z,3.17
2022-10-16T05:24:30.063Z,7.70
2022-10-16T05:27:31.448Z,3.53
2022-10-16T05:30:32.976Z,3.53
2022-10-16T05:33:34.747Z,3.20
2022-10-16T05:36:36.250Z,2.83
2022-10-16T05:39:37.912Z,4.03
2022-10-16T05:42:40.063Z,2.63
2022-10-16T05:45:41.659Z,3.60
2022-10-16T05:48:43.303Z,2.63
2022-10-16T05:51:44.883Z,1.97
2022-10-16T05:54:46.305Z,6.30
2022-10-16T05:57:47.866Z,1.33
2022-10-16T06:01:12.722Z,1.40
2022-10-16T06:04:14.226Z,4.10
2022-10-16T06:07:15.654Z,1.57
2022-10-16T06:10:17.494Z,6.33
2022-10-16T06:13:18.981Z,6.03
2022-10-16T06:16:20.972Z,6.97
2022-10-16T06:19:23.794Z,2.23
2022-10-16T06:22:25.244Z,5.07
2022-10-16T06:25:26.835Z,3.10
2022-10-16T06:28:28.431Z,2.10
2022-10-16T06:31:32.010Z,3.30
2022-10-16T06:34:33.746Z,2.00
2022-10-16T06:37:35.907Z,1.80
2022-10-16T06:40:37.572Z,2.90
2022-10-16T06:43:39.030Z,3.67
2022-10-16T06:46:40.461Z,3.17
2022-10-16T06:49:42.005Z,3.53
2022-10-16T06:52:43.459Z,4.80
2022-10-16T06:55:44.957Z,6.50
2022-10-16T06:58:47.539Z,4.47
2022-10-16T07:01:49.162Z,7.20
2022-10-16T07:04:50.613Z,3.23
2022-10-16T07:07:52.211Z,3.60
2022-10-16T07:11:01.818Z,2.20
2022-10-16T07:14:04.131Z,3.70
2022-10-16T07:17:05.587Z,3.73
2022-10-16T07:20:07.657Z,3.30
2022-10-16T07:23:09.164Z,4.97
2022-10-16T07:26:11.380Z,3.53
2022-10-16T07:29:15.834Z,2.83
2022-10-16T07:32:17.273Z,4.10
2022-10-16T07:35:18.802Z,2.30
2022-10-16T07:38:21.657Z,5.17
2022-10-16T07:41:23.037Z,4.40
2022-10-16T07:44:24.418Z,5.93
2022-10-16T07:47:26.201Z,6.00
2022-10-16T07:50:27.746Z,4.53
2022-10-16T07:53:29.249Z,4.20
2022-10-16T07:56:32.508Z,4.47
2022-10-16T07:59:33.912Z,6.57
2022-10-16T08:02:35.334Z,3.63
2022-10-16T08:05:36.732Z,2.80
2022-10-16T08:08:38.237Z,2.67
2022-10-16T08:11:39.812Z,4.43
2022-10-16T08:14:43.306Z,3.77
2022-10-16T08:18:01.729Z,10.53
2022-10-16T08:21:04.431Z,12.43
2022-10-16T08:24:06.059Z,5.40
2022-10-16T08:27:07.938Z,6.67
2022-10-16T08:30:10.146Z,4.93
2022-10-16T08:33:12.198Z,2.70
2022-10-16T08:36:14.772Z,2.93
2022-10-16T08:39:16.884Z,2.73
2022-10-16T08:42:45.230Z,3.07
2022-10-16T08:46:14.625Z,6.07
2022-10-16T08:49:16.463Z,3.33
2022-10-16T08:52:17.938Z,4.50
2022-10-16T08:55:30.194Z,2.90
2022-10-16T08:58:31.638Z,3.13
2022-10-16T09:01:41.646Z,3.30
2022-10-16T09:05:13.013Z,3.23
2022-10-16T09:08:34.583Z,5.03
2022-10-16T09:11:44.923Z,7.23
2022-10-16T09:19:44.515Z,6.87
2022-10-16T09:22:52.591Z,3.37
2022-10-16T09:26:02.003Z,6.27
2022-10-16T09:29:04.657Z,5.07
2022-10-16T09:32:20.414Z,1.63
2022-10-16T09:35:28.218Z,2.67
2022-10-16T09:38:32.895Z,4.70
2022-10-16T09:41:38.423Z,3.77
2022-10-16T09:48:14.501Z,3.00
2022-10-16T09:55:29.843Z,3.10
2022-10-16T10:07:36.143Z,4.60
2022-10-16T10:10:43.842Z,5.33
2022-10-16T10:13:45.352Z,2.87
2022-10-16T10:16:47.767Z,3.53
2022-10-16T10:19:53.698Z,2.77
2022-10-16T10:22:56.616Z,2.90
2022-10-16T10:26:14.887Z,4.70
2022-10-16T10:29:31.538Z,5.77
2022-10-16T10:33:08.660Z,8.90
2022-10-16T10:36:26.686Z,8.00
2022-10-16T10:39:43.649Z,6.73
2022-10-16T10:43:05.535Z,7.90
2022-10-16T10:46:23.477Z,4.97
2022-10-16T10:49:53.683Z,5.07
2022-10-16T10:53:25.597Z,6.50
2022-10-16T10:56:45.604Z,3.33
2022-10-16T10:59:56.175Z,1.73
2022-10-16T11:03:30.063Z,1.47
2022-10-16T11:06:37.055Z,8.20
2022-10-16T11:09:43.482Z,8.13
2022-10-16T11:12:49.349Z,5.13
2022-10-16T11:15:55.022Z,3.37
2022-10-16T11:19:16.074Z,4.10
2022-10-16T11:22:31.395Z,1.47
2022-10-16T11:25:33.915Z,3.53
2022-10-16T11:28:44.255Z,3.00
2022-10-16T11:31:51.202Z,2.77
2022-10-16T11:35:14.776Z,1.90
2022-10-16T11:38:30.063Z,3.27
2022-10-16T11:41:46.568Z,4.10
2022-10-16T11:45:19.907Z,2.80
2022-10-16T11:48:58.223Z,2.53
2022-10-16T11:52:19.931Z,3.93
2022-10-16T11:55:27.172Z,4.37
2022-10-16T11:58:33.444Z,2.47
2022-10-16T12:01:37.764Z,3.33
2022-10-16T12:04:52.593Z,2.37
2022-10-16T12:08:07.999Z,2.07
2022-10-16T12:11:36.783Z,4.83
2022-10-16T12:15:03.986Z,2.03
2022-10-16T12:18:02.420Z,3.97
2022-10-16T12:21:08.213Z,8.10
2022-10-16T12:24:43.275Z,4.07
2022-10-16T12:27:44.938Z,3.37
2022-10-16T12:30:58.495Z,3.77
2022-10-16T12:34:03.101Z,6.73
2022-10-16T12:37:12.541Z,7.13
2022-10-16T12:40:25.709Z,6.97
2022-10-16T12:43:40.110Z,3.97
2022-10-16T12:46:41.484Z,7.13
2022-10-16T12:49:50.397Z,5.23
2022-10-16T12:52:51.922Z,4.93
2022-10-16T12:56:10.463Z,4.57
2022-10-16T12:59:39.950Z,2.03
2022-10-16T13:03:00.191Z,3.53
2022-10-16T13:06:24.868Z,3.83
2022-10-16T13:09:44.686Z,5.23
2022-10-16T13:12:59.346Z,1.83
2022-10-16T13:16:16.938Z,3.57
2022-10-16T13:19:43.877Z,4.37
2022-10-16T13:22:56.714Z,7.37
2022-10-16T13:26:31.414Z,4.57
2022-10-16T13:29:34.764Z,8.30
2022-10-16T13:32:36.312Z,3.30
2022-10-16T13:35:38.132Z,5.83
2022-10-16T13:38:39.516Z,5.13
2022-10-16T13:41:41.998Z,4.53
2022-10-16T13:44:51.743Z,5.73
2022-10-16T13:48:04.482Z,10.40
2022-10-16T13:51:15.278Z,3.57
2022-10-16T13:54:16.708Z,4.67
2022-10-16T13:57:27.550Z,3.87
2022-10-16T14:00:33.812Z,2.10
2022-10-16T14:03:36.596Z,4.27
2022-10-16T14:06:42.405Z,3.67
2022-10-16T14:09:50.605Z,3.40
2022-10-16T14:12:56.773Z,2.93
2022-10-16T14:16:01.428Z,3.43
2022-10-16T14:19:11.342Z,5.17
2022-10-16T14:22:29.684Z,2.70
2022-10-16T14:25:33.386Z,6.67
2022-10-16T14:28:36.084Z,2.70
2022-10-16T14:31:38.357Z,6.00
2022-10-16T14:34:41.354Z,6.00
2022-10-16T14:37:44.930Z,4.00
2022-10-16T14:40:49.593Z,5.60
2022-10-16T14:43:55.549Z,4.80
2022-10-16T14:46:57.350Z,3.63
2022-10-16T14:50:00.565Z,2.67
2022-10-16T14:53:02.089Z,4.47
2022-10-16T14:56:17.231Z,3.57
2022-10-16T14:59:29.520Z,4.83
2022-10-16T15:02:33.913Z,4.43
2022-10-16T15:05:35.492Z,12.83
2022-10-16T15:08:36.902Z,6.17
2022-10-16T15:11:38.483Z,5.27
2022-10-16T15:14:39.881Z,6.00
2022-10-16T15:17:41.313Z,6.00
2022-10-16T15:20:42.711Z,4.80
2022-10-16T15:23:44.110Z,4.30
2022-10-16T15:26:46.901Z,4.90
2022-10-16T15:29:48.307Z,8.73
2022-10-16T15:32:49.718Z,7.93
2022-10-16T15:35:52.589Z,5.60
2022-10-16T15:38:54.525Z,3.73
2022-10-16T15:41:56.035Z,3.33
2022-10-16T15:44:57.420Z,3.37
2022-10-16T15:47:58.833Z,5.13
2022-10-16T15:51:08.023Z,4.67
2022-10-16T15:54:09.860Z,3.03
2022-10-16T15:57:11.300Z,3.87
2022-10-16T16:00:15.633Z,4.17
2022-10-16T16:03:17.005Z,3.53
2022-10-16T16:06:18.393Z,6.70
2022-10-16T16:09:19.768Z,7.37
2022-10-16T16:12:21.164Z,6.53
2022-10-16T16:15:23.624Z,3.63
2022-10-16T16:18:25.945Z,3.87
2022-10-16T16:21:27.337Z,5.20
2022-10-16T16:24:28.730Z,4.57
2022-10-16T16:27:33.880Z,6.57
2022-10-16T16:30:35.379Z,6.60
2022-10-16T16:33:36.861Z,4.60
2022-10-16T16:36:38.402Z,10.50
2022-10-16T16:39:39.822Z,12.17
2022-10-16T16:42:41.222Z,9.53
2022-10-16T16:45:42.612Z,7.63
2022-10-16T16:48:44.620Z,8.83
2022-10-16T16:51:46.026Z,9.10
2022-10-16T16:54:52.503Z,6.30
2022-10-16T16:57:54.486Z,8.03
2022-10-16T17:00:57.215Z,4.50
2022-10-16T17:04:11.206Z,6.77
2022-10-16T17:07:12.802Z,7.17
2022-10-16T17:10:14.172Z,10.57
2022-10-16T17:13:15.598Z,5.20
2022-10-16T17:16:17.578Z,10.40
2022-10-16T17:19:20.306Z,5.80
2022-10-16T17:22:22.061Z,5.93
2022-10-16T17:25:25.130Z,7.13
2022-10-16T17:28:27.016Z,5.13
2022-10-16T17:31:33.847Z,8.33
2022-10-16T17:34:35.568Z,5.50
2022-10-16T17:37:37.005Z,5.60
2022-10-16T17:40:38.789Z,8.63
2022-10-16T17:43:40.508Z,5.03
2022-10-16T17:46:41.905Z,8.27
2022-10-16T17:49:43.489Z,4.43
2022-10-16T17:52:44.920Z,4.47
2022-10-16T17:55:46.288Z,4.70
2022-10-16T17:58:52.982Z,9.73
2022-10-16T18:01:54.446Z,13.47
2022-10-16T18:04:55.845Z,12.90
2022-10-16T18:07:57.973Z,10.70
2022-10-16T18:10:59.395Z,7.13
2022-10-16T18:14:01.691Z,5.50
2022-10-16T18:17:03.195Z,6.90
2022-10-16T18:20:06.821Z,11.47
2022-10-16T18:23:08.282Z,11.93
2022-10-16T18:26:11.433Z,10.37
2022-10-16T18:29:13.422Z,15.17
2022-10-16T18:32:14.820Z,11.43
2022-10-16T18:35:16.342Z,14.53
2022-10-16T18:38:20.586Z,14.40
2022-10-16T18:41:22.644Z,14.93
2022-10-16T18:44:24.110Z,14.13
2022-10-16T18:47:25.767Z,15.20
2022-10-16T18:50:27.522Z,15.33
2022-10-16T18:56:35.726Z,21.17
2022-10-16T18:59:37.138Z,21.37
2022-10-16T19:02:38.697Z,19.40
2022-10-16T19:05:40.168Z,24.60
2022-10-16T19:08:42.687Z,23.33
2022-10-16T19:11:44.956Z,26.53
2022-10-16T19:14:48.818Z,18.50
2022-10-16T19:17:50.198Z,30.10
2022-10-16T19:20:51.565Z,31.30
2022-10-16T19:23:59.120Z,43.00
2022-10-16T19:27:00.508Z,37.60
2022-10-16T19:30:02.390Z,25.60
2022-10-16T19:33:04.540Z,12.47
2022-10-16T19:36:13.451Z,9.03
2022-10-16T19:42:21.384Z,5.80
2022-10-16T19:45:22.821Z,8.00
2022-10-16T19:51:31.719Z,8.83
2022-10-16T19:54:33.480Z,7.53
2022-10-16T19:57:38.427Z,7.30
2022-10-16T20:00:43.006Z,7.60
2022-10-16T20:03:45.461Z,5.00
2022-10-16T20:06:46.870Z,6.17
2022-10-16T20:09:48.326Z,8.40
2022-10-16T20:12:49.700Z,6.80
2022-10-16T20:15:51.232Z,3.27
2022-10-16T20:18:53.465Z,5.70
2022-10-16T20:21:54.945Z,4.90
2022-10-16T20:24:56.410Z,6.23
2022-10-16T20:27:57.896Z,5.83
2022-10-16T20:31:06.634Z,6.03
2022-10-16T20:34:11.210Z,7.53
2022-10-16T20:37:12.600Z,6.43
2022-10-16T20:40:14.200Z,5.27
2022-10-16T20:43:18.106Z,3.37
2022-10-16T20:46:23.347Z,6.10
2022-10-16T20:49:39.218Z,4.70
2022-10-16T20:52:40.958Z,7.97
2022-10-16T20:55:42.398Z,7.83
2022-10-16T20:58:44.989Z,5.33
2022-10-16T21:01:46.551Z,3.60
2022-10-16T21:04:49.714Z,5.20
2022-10-16T21:07:51.097Z,4.97
2022-10-16T21:10:52.626Z,10.00
2022-10-16T21:13:56.384Z,6.13
2022-10-16T21:16:57.775Z,8.23
2022-10-16T21:19:59.379Z,3.50
2022-10-16T21:23:02.661Z,3.93
2022-10-16T21:26:04.305Z,6.47
2022-10-16T21:29:07.322Z,6.40
2022-10-16T21:32:08.804Z,5.87
2022-10-16T21:35:10.237Z,6.40
2022-10-16T21:38:11.626Z,6.33
2022-10-16T21:41:15.145Z,6.37
2022-10-16T21:44:17.348Z,7.87
2022-10-16T21:47:19.085Z,3.57
2022-10-16T21:50:20.480Z,4.90
2022-10-16T21:53:21.867Z,4.30
2022-10-16T21:56:23.496Z,5.70
2022-10-16T21:59:24.892Z,5.53
2022-10-16T22:02:26.286Z,3.37
2022-10-16T22:05:27.691Z,5.63
2022-10-16T22:08:29.239Z,7.53
2022-10-16T22:11:36.838Z,7.37
2022-10-16T22:14:39.926Z,7.47
2022-10-16T22:17:41.381Z,4.03
2022-10-16T22:20:46.548Z,5.50
2022-10-16T22:23:48.057Z,8.73
2022-10-16T22:26:49.905Z,5.33
2022-10-16T22:29:52.152Z,5.03
2022-10-16T22:32:53.544Z,3.30
2022-10-16T22:35:54.951Z,3.13
2022-10-16T22:38:56.572Z,6.20
2022-10-16T22:41:57.970Z,7.33
2022-10-16T22:44:59.341Z,5.73
2022-10-16T22:48:01.142Z,5.00
2022-10-16T22:51:04.077Z,5.10
2022-10-16T22:54:05.590Z,11.17
2022-10-16T22:57:06.985Z,5.70
2022-10-16T23:00:12.337Z,5.27
2022-10-16T23:03:13.853Z,6.23
2022-10-16T23:06:15.504Z,5.33
2022-10-16T23:09:16.874Z,9.87
2022-10-16T23:12:21.578Z,7.90
2022-10-16T23:15:22.963Z,6.60
2022-10-16T23:18:24.352Z,4.20
2022-10-16T23:21:26.732Z,4.23
2022-10-16T23:24:31.009Z,6.30
2022-10-16T23:27:33.107Z,6.73
2022-10-16T23:30:34.492Z,7.33
2022-10-16T23:33:37.196Z,6.20
2022-10-16T23:36:38.597Z,7.27
2022-10-16T23:39:40.078Z,2.73
2022-10-16T23:42:41.470Z,8.70
2022-10-16T23:45:43.025Z,4.63
2022-10-16T23:48:44.997Z,4.10
2022-10-16T23:51:46.370Z,4.17
2022-10-16T23:54:47.875Z,4.37
2022-10-16T23:57:49.336Z,8.80
